Racecast

Kiley Atwood

UC Riverside (CA) · So · NCAA DIWESTBIG WEST · Compare head to head

Athlete rating 114.2 2020 TF season
Best race 115.2 TF
Races 42
Seasons 4 2017 — 2020

RankedNation #2129·MI #97·Team #3 ?

Rating scale ?
Speed rating — all races

Cross Country

XC speed rating

2019 XC 110.4

UC Riverside (CA) · Grade JR-3

Date Meet Event Result Place Rating Difficulty PR/SR Flags
2019-11-15 Colfax Golf Club 6000m 22:40.5 185th · 4th on team 110.6 +0.006 ★CR CSR
2019-11-02 UCR Agg Course 6000m 22:20.4 43rd · 3rd on team 111.7 -0.023 ★CR CSR
2019-10-19 Agricultural Operations Course 6000m 22:00.8 29th · 3rd on team 113.9 -0.023 ★PR ★CR SR CSR RSR
2019-09-28 Les Bolstadt Golf Course 6000m 24:42.8 118th · 3rd on team 109.0 +0.051 ★CR CSR
2019-09-14 Agricultural Operations Course 6000m 22:43.8 88th · 6th on team 111.3 -0.023 SR CSR RSR
2019-08-31 Shady Rest Park (7800 ft elevation) 4000m 16:59.1 14th · 5th on team 105.7 ★CR SR CSR RSR

2018 XC 110.0

UC Riverside (CA) · Grade So

Date Meet Event Result Place Rating Difficulty PR/SR Flags
2018-11-09 Haggin Oaks Golf Course 6000m 23:46.2 226th · 6th on team 108.0 +0.002 ★CR CSR
2018-10-27 Carbon Canyon Regional Park 6000m 23:52.2 50th · 7th on team 111.3 +0.032 ★CR CSR
2018-10-13 Agricultural Operations Course 5000m 18:13.4 37th · 2nd on team 112.9 -0.008 ★PR ★CR SR CSR
2018-09-28 Notre Dame Burke Memorial Golf Course 5000m 19:41 106th · 6th on team 108.0 +0.008 SR CSR
2018-09-15 Agricultural Operations Course 6000m 22:08.8 57th · 2nd on team 113.0 -0.023 CR SR CSR RSR
2018-09-01 Carbon Canyon Regional Park 5000m 19:58.3 98th · 5th on team 107.1 +0.020 ★CR SR CSR RSR

2017 XC 109.9

UC Riverside (CA) · Grade Fr

Date Meet Event Result Place Rating Difficulty PR/SR Flags
2017-11-10 Jefferson Park Golf Course 6000m 23:13 204th · 6th on team 110.3 +0.015 ★CR CSR
2017-10-28 University of California, Riverside 6000m 22:03.3 31st · 7th on team 114.5 -0.016 PR ★CR R SR CSR RSR
2017-10-14 Agricultural Operations Course 5000m 18:30.1 38th · 5th on team 113.6 -0.008 PR CR R SR CSR RSR
2017-09-29 Notre Dame Burke Memorial Golf Course 5000m 19:35.7 150th · 7th on team 108.0 +0.008 PR ★CR SR CSR
2017-09-16 Agricultural Operations Course 6000m 22:25.8 80th · 6th on team 109.2 -0.023 PR CR R SR CSR RSR
2017-09-01 Shadow Mountain 4000m 16:32.5 6th · 4th on team 107.0 +0.060 ★PR ★CR R SR CSR RSR
2017-09-01 Shadow Mountain 4000m 16:32.5 11th · 4th on team 107.0 +0.060

Track & Field

TF speed rating

2020 TF 112.0

UC Riverside (CA) · Grade So

Date Meet Event Result Place Rating Difficulty PR/SR Flags
2020-02-29 MPSF Indoor Track & Field Championships 3000m 10:11.78 56th · 1st on team 113.1 -0.046 ★PR SR
2020-02-29 MPSF Indoor Track & Field Championships 5000m 17:41.42 28th · 1st on team 113.4 -0.046 SR
2020-02-15 GVSU Big Meet - Saturday 1mile 5:17.64 27th · 3rd on team 110.7 -0.040 ★PR SR
2020-02-14 GVSU Big Meet - Friday 5000m 17:41.5 41st · 1st on team 114.4 -0.040 SR RSR
2020-02-01 Indiana University Indoor Relays 3000m 10:21.13 13th · 2nd on team 114.2 -0.043 PR SR RSR
2020-01-17 Lumberjack Team Challenge 1mile 5:47.38 16th · 3rd on team 106.0 +0.005 PR SR RSR

2019 TF 111.3

UC Riverside (CA) · Grade So

Date Meet Event Result Place Rating Difficulty PR/SR Flags
2019-05-12 Big West Outdoor Track & Field Championships 5000m 17:41.2 20th · 1st on team 115.2 -0.038 ★PR ★R SR RSR
2019-05-12 Big West Outdoor Track & Field Championships 10-km 37:21.24 10th · 1st on team 111.8 -0.038 ★PR SR
2019-04-27 Steve Scott Invitational (Day 2) 1500m 5:00.06 37th · 3rd on team 108.6 -0.037
2019-04-17 Bryan Clay Invitational (Day 1) 10-km 38:06.45 38th · 1st on team 110.0 -0.048 PR SR
2019-04-12 UC Riverside Chris Rinne Twilight 1500m 4:59.57 18th · 4th on team 110.3 -0.024
2019-03-29 UCLA Bob Larsen Distance Carnival 5000m 18:06.13 3rd · 2nd on team 112.3 -0.039
2019-03-21 Meet results → Women's 1500 Meters 5:01.35 35th · 8th on team 108.6 ★PR SR
2019-03-09 UCSB vs UC Riverside vs Cal Poly 5000m 17:43.12 6th · 1st on team 115.0 -0.038 PR R SR RSR
2019-03-01 RCC/CSUF Tri-Meet 1500m 4:58.18 11th · 2nd on team 110.0 -0.032 SR RSR

2018 TF 109.8

UC Riverside (CA) · Grade Fr

Date Meet Event Result Place Rating Difficulty PR/SR Flags
2018-05-12 Big West Outdoor Track & Field Championships 10-km 39:36.17 20th · 2nd on team 103.9 -0.031 PR SR
2018-04-27 Steve Scott Invitational (Day 1) 5000m 18:17.13 11th · 2nd on team 111.2 -0.037
2018-04-20 Bryan Clay Invitational (Day 2) 1500m 4:55.12 255th · 1st on team 109.3 -0.048 ★PR SR
2018-04-13 Highlander Twilight Invitational 5000m 18:07.52 2nd · 1st on team 114.2 -0.024 PR SR RSR
2018-04-07 Pomona Pitzer Invitational 1500m 4:55.18 41st · 1st on team 111.0 -0.033 PR SR RSR
2018-03-24 UCR Spring Classic Invitational 1500m 5:02.33 32nd · 5th on team 109.3 -0.024 PR SR
2018-03-10 UCSB vs UC Riverside vs Cal Poly 3000m 10:42.2 14th · 2nd on team 110.4 -0.030 PR SR RSR
2018-03-03 RCC, CSUF, UCR & Pepperdine Quad-Meet 1500m 5:02.94 4th · 4th on team 108.9 -0.026 PR SR RSR